LPPRLECO

Guest
Details From LPPR - Porto
To LECO - A Coruna
Flight Number -
Tags generated
Created
Modified
Stats Distance 124 nm / 230 km
Max Altitude 15,900 ft / 4,846 m
Waypoints 3
Social Downloads 2
Likes 0
Share VATSIM

Download

Looking for another format? Having issues loading an existing format? Contact us
Advertisement - Login to hide

Notes

Basic altitude profile: - Ascent Rate: 2500ft/min - Ascent Speed: 250kts - Cruise Altitude: 210ft - Cruise Speed: 420kts - Descent Rate: 1500ft/min - Descent Speed: 250kts Options: - Use NATs: yes - Use PACOTS: yes - Use low airways: no - Use high airways: yes

Route

LPPR TURON LECO

ID Type Via Altitude Latitude Longitude Leg Dist Tot Dist Heading (true) Name
O LPPR APT - 0 ft / 0 m 41.24793˚ -8.68122˚ - 0 nm - Porto
TURON FIX - 15,900 ft / 4,846 m 42.06792˚ -8.56342˚ 49 nm 49 nm 6° / 6° -
O LECO APT - 0 ft / 0 m 43.30226˚ -8.37709˚ 74 nm 124 nm 6° / 6° A Coruna

Altitude Profile

Advertisement - Login to hide

LPPR

Details ICAO LPPR (OPO)
Name Porto
Region Portugal
Timezone Europe/Lisbon (UTC+0.0)
Stats Elevation 228 ft / 69 m (AMSL)
Location 41.247932° -8.681221°
Runways 1
Magnetic Variation 2.339° W

METAR

LPPR 151230Z 35012KT 9999 FEW020 12/07 Q1017

Decode

TAF

TAF LPPR 151110Z 1512/1612 35008KT 9999 SCT030 BECMG 1518/1521 VRB03KT CAVOK BECMG 1522/1524 05005KT BECMG 1610/1612 36008KT

Decode

Departure Runways

ID Width Length Bearing (true) Bearing (mag) Surface Threshold Offset Overrun Length
17 148 ft / 45 m 11,451 ft / 3,490 m 168.88° 171.22° Asphalt 984 ft / 300 m 220 ft / 67 m
35 148 ft / 45 m 11,451 ft / 3,490 m 348.89° 351.23° Asphalt 492 ft / 150 m 370 ft / 113 m

LECO

Details ICAO LECO (LCG)
Name A Coruna
Region Spain
Timezone Europe/Madrid (UTC+1.0)
Stats Elevation 323 ft / 98 m (AMSL)
Location 43.302264° -8.377086°
Runways 1
Magnetic Variation 2.391° W

METAR

LECO 151230Z 36007KT 320V050 9999 FEW024 SCT035 12/05 Q1017 NOSIG

Decode

TAF

TAF LECO 150800Z 1509/1609 33006KT 9999 BKN020 TX13/1514Z TN03/1606Z PROB30 TEMPO 1509/1512 4000 RA BKN010

Decode

Destination Runways

ID Width Length Bearing (true) Bearing (mag) Surface Threshold Offset Overrun Length
04 148 ft / 45 m 6,371 ft / 1,942 m 30.94° 33.33° Asphalt 0 ft / 0 m 194 ft / 59 m
22 148 ft / 45 m 6,371 ft / 1,942 m 210.94° 213.33° Asphalt 0 ft / 0 m 203 ft / 62 m

Approach Navaids

Runway Type Ident Frequency Range Bearing (true) Bearing (mag) Slope Elevation
22 Localiser LCO 109.90 MHz 18 nm / 33 km 210.89° 213.28° - 329 ft / 100 m (AMSL)
22 Glidescope LCO 109.90 MHz 10 nm / 19 km 210.94° 213.33° 3.00° 323 ft / 98 m (AMSL)
22 DME LCO 109.90 MHz 18 nm / 33 km - - - 293 ft / 89 m (AMSL)